Etusivu
METAR-TAF:

METAR-TAF

Lentoasemat :

Klamath Falls Airport (Kingsley Field)

Klamath Falls, Oregon, Yhdysvallat

Leveyspiiri: 42-08-49N, Pituuspiiri: 121-43-27W, korkeus merenpinnasta: 1247 m

Tämänhetkinen sää

Tämä raportti tehtiin 23 minuuttia sitten, kello 16.53 UTC
tyyntä
Lämpötila 3°C
Kosteus 81%
Ilmanpaine 1021 hPa
Näkyvyys: 16.1 km
selkeää

METAR: KLMT 131653Z 00000KT 10SM CLR 03/00 A3016 RMK AO2 SLP221 T00280000

Aika: 09:16 (17:16 UTC)

Sääennuste

Tämä raportti tehtiin 5 tuntia ja 43 minuuttia sitten, kello 11.33 UTC
Ennuste voimassa 13. päivästä klo 12 UTC - 14. päivään klo 12 UTC
Tuuli 4 kn eri suunnista
Näkyvyys: 10 km
Hajanaisia pilviä 20000 ft:n korkeudessa

TAF: KLMT 131133Z 1312/1412 VRB04KT P6SM SCT200

Säähavainnot ja -ennusteet yli 4000 lentoasemalta (METAR- ja TAF-raportit).

Käytössä olevat sääasemat on merkitty karttaan keltaisilla ja punaisilla pisteillä.

Aseta hiiri pisteen päälle nähdäksesi sääaseman nimen.

Klikkaa sitten nähdäksesi säähavainnot ja -ennusteet.

Kartan vaihtaminen: klikkaa mustalla rastilla varustettuja vihreitä pisteitä, niin voit zoomata sisään; viivalla varustettua vihreää pistettä, niin voit zoomata ulos tai vihreitä nuolia, niin pääset viereisille kartoille.


METAR-TAF: